sensor_id;sensor_type;location;lat;lon;timestamp;temperature;humidity
64997;SHT31;51545;51.568;6.998;2024-01-30T00:02:04;7.17;94.93
64997;SHT31;51545;51.568;6.998;2024-01-30T00:04:29;7.03;94.85
64997;SHT31;51545;51.568;6.998;2024-01-30T00:06:55;6.90;95.19
64997;SHT31;51545;51.568;6.998;2024-01-30T00:09:21;6.88;95.51
64997;SHT31;51545;51.568;6.998;2024-01-30T00:11:48;6.89;95.73
64997;SHT31;51545;51.568;6.998;2024-01-30T00:14:14;6.85;95.62
64997;SHT31;51545;51.568;6.998;2024-01-30T00:16:41;6.72;95.72
64997;SHT31;51545;51.568;6.998;2024-01-30T00:19:07;6.61;95.69
64997;SHT31;51545;51.568;6.998;2024-01-30T00:21:33;6.49;95.96
64997;SHT31;51545;51.568;6.998;2024-01-30T00:23:59;6.45;96.20
64997;SHT31;51545;51.568;6.998;2024-01-30T00:26:25;6.37;96.31
64997;SHT31;51545;51.568;6.998;2024-01-30T00:28:51;6.34;96.21
64997;SHT31;51545;51.568;6.998;2024-01-30T00:31:17;6.27;96.87
64997;SHT31;51545;51.568;6.998;2024-01-30T00:33:43;6.20;96.57
64997;SHT31;51545;51.568;6.998;2024-01-30T00:36:09;6.16;96.80
64997;SHT31;51545;51.568;6.998;2024-01-30T00:38:36;6.09;96.56
64997;SHT31;51545;51.568;6.998;2024-01-30T00:41:03;6.07;96.65
64997;SHT31;51545;51.568;6.998;2024-01-30T00:43:28;6.05;96.60
64997;SHT31;51545;51.568;6.998;2024-01-30T00:45:56;6.06;96.96
64997;SHT31;51545;51.568;6.998;2024-01-30T00:48:24;5.98;96.85
64997;SHT31;51545;51.568;6.998;2024-01-30T00:50:49;5.89;97.16
64997;SHT31;51545;51.568;6.998;2024-01-30T00:53:15;5.88;97.06
64997;SHT31;51545;51.568;6.998;2024-01-30T00:55:41;5.83;97.10
64997;SHT31;51545;51.568;6.998;2024-01-30T00:58:07;5.85;97.08
64997;SHT31;51545;51.568;6.998;2024-01-30T01:00:33;5.86;97.24
64997;SHT31;51545;51.568;6.998;2024-01-30T01:02:59;5.85;97.18
64997;SHT31;51545;51.568;6.998;2024-01-30T01:05:25;5.78;97.18
64997;SHT31;51545;51.568;6.998;2024-01-30T01:07:53;5.82;97.56
64997;SHT31;51545;51.568;6.998;2024-01-30T01:10:19;5.81;97.22
64997;SHT31;51545;51.568;6.998;2024-01-30T01:12:50;5.81;97.32
64997;SHT31;51545;51.568;6.998;2024-01-30T01:15:16;5.71;97.50
64997;SHT31;51545;51.568;6.998;2024-01-30T01:17:42;5.68;97.41
64997;SHT31;51545;51.568;6.998;2024-01-30T01:20:08;5.69;97.56
64997;SHT31;51545;51.568;6.998;2024-01-30T01:22:35;5.74;97.73
64997;SHT31;51545;51.568;6.998;2024-01-30T01:25:04;5.69;97.43
64997;SHT31;51545;51.568;6.998;2024-01-30T01:27:33;5.82;97.77
64997;SHT31;51545;51.568;6.998;2024-01-30T01:30:06;5.71;97.40
64997;SHT31;51545;51.568;6.998;2024-01-30T01:32:35;5.81;97.79
64997;SHT31;51545;51.568;6.998;2024-01-30T01:35:02;5.78;97.42
64997;SHT31;51545;51.568;6.998;2024-01-30T01:37:31;5.77;97.60
64997;SHT31;51545;51.568;6.998;2024-01-30T01:39:57;5.83;97.57
64997;SHT31;51545;51.568;6.998;2024-01-30T01:42:22;5.95;97.57
64997;SHT31;51545;51.568;6.998;2024-01-30T01:44:48;5.98;97.41
64997;SHT31;51545;51.568;6.998;2024-01-30T01:47:14;6.06;97.52
64997;SHT31;51545;51.568;6.998;2024-01-30T01:49:40;6.13;97.61
64997;SHT31;51545;51.568;6.998;2024-01-30T01:52:06;6.16;97.37
64997;SHT31;51545;51.568;6.998;2024-01-30T01:54:32;6.10;97.10
64997;SHT31;51545;51.568;6.998;2024-01-30T01:56:59;6.09;97.26
64997;SHT31;51545;51.568;6.998;2024-01-30T01:59:25;6.06;97.44
64997;SHT31;51545;51.568;6.998;2024-01-30T02:01:52;6.00;97.01
64997;SHT31;51545;51.568;6.998;2024-01-30T02:04:20;6.07;97.57
64997;SHT31;51545;51.568;6.998;2024-01-30T02:06:46;6.06;97.48
64997;SHT31;51545;51.568;6.998;2024-01-30T02:09:12;6.02;97.22
64997;SHT31;51545;51.568;6.998;2024-01-30T02:11:38;6.11;97.49
64997;SHT31;51545;51.568;6.998;2024-01-30T02:14:06;5.92;97.20
64997;SHT31;51545;51.568;6.998;2024-01-30T02:16:32;6.02;97.59
64997;SHT31;51545;51.568;6.998;2024-01-30T02:18:58;6.03;97.12
64997;SHT31;51545;51.568;6.998;2024-01-30T02:21:24;6.07;97.51
64997;SHT31;51545;51.568;6.998;2024-01-30T02:23:50;6.00;97.17
64997;SHT31;51545;51.568;6.998;2024-01-30T02:26:18;6.02;97.47
64997;SHT31;51545;51.568;6.998;2024-01-30T02:28:43;6.06;97.41
64997;SHT31;51545;51.568;6.998;2024-01-30T02:31:09;5.98;97.31
64997;SHT31;51545;51.568;6.998;2024-01-30T02:33:35;6.00;97.65
64997;SHT31;51545;51.568;6.998;2024-01-30T02:36:01;5.98;97.40
64997;SHT31;51545;51.568;6.998;2024-01-30T02:38:27;6.16;97.54
64997;SHT31;51545;51.568;6.998;2024-01-30T02:40:54;6.20;97.39
64997;SHT31;51545;51.568;6.998;2024-01-30T02:43:24;6.28;97.46
64997;SHT31;51545;51.568;6.998;2024-01-30T02:45:51;6.27;97.20
64997;SHT31;51545;51.568;6.998;2024-01-30T02:48:17;6.33;97.21
64997;SHT31;51545;51.568;6.998;2024-01-30T02:50:43;6.28;96.87
64997;SHT31;51545;51.568;6.998;2024-01-30T02:53:09;6.24;96.86
64997;SHT31;51545;51.568;6.998;2024-01-30T02:55:35;6.17;96.57
64997;SHT31;51545;51.568;6.998;2024-01-30T02:58:01;6.18;96.97
64997;SHT31;51545;51.568;6.998;2024-01-30T03:00:26;6.24;97.27
64997;SHT31;51545;51.568;6.998;2024-01-30T03:02:53;6.13;96.97
64997;SHT31;51545;51.568;6.998;2024-01-30T03:05:19;6.20;97.34
64997;SHT31;51545;51.568;6.998;2024-01-30T03:07:45;6.16;97.16
64997;SHT31;51545;51.568;6.998;2024-01-30T03:10:11;6.26;97.00
64997;SHT31;51545;51.568;6.998;2024-01-30T03:12:37;6.31;96.82
64997;SHT31;51545;51.568;6.998;2024-01-30T03:15:04;6.17;96.40
64997;SHT31;51545;51.568;6.998;2024-01-30T03:17:30;6.23;97.20
64997;SHT31;51545;51.568;6.998;2024-01-30T03:19:56;6.31;97.04
64997;SHT31;51545;51.568;6.998;2024-01-30T03:22:22;6.31;96.86
64997;SHT31;51545;51.568;6.998;2024-01-30T03:24:48;6.30;96.88
64997;SHT31;51545;51.568;6.998;2024-01-30T03:27:15;6.11;96.83
64997;SHT31;51545;51.568;6.998;2024-01-30T03:29:40;6.05;96.92
64997;SHT31;51545;51.568;6.998;2024-01-30T03:32:06;6.09;97.00
64997;SHT31;51545;51.568;6.998;2024-01-30T03:34:35;6.09;97.14
64997;SHT31;51545;51.568;6.998;2024-01-30T03:37:02;6.31;97.20
64997;SHT31;51545;51.568;6.998;2024-01-30T03:39:30;6.42;97.00
64997;SHT31;51545;51.568;6.998;2024-01-30T03:41:56;6.46;96.82
64997;SHT31;51545;51.568;6.998;2024-01-30T03:44:22;6.40;96.49
64997;SHT31;51545;51.568;6.998;2024-01-30T03:46:48;6.17;96.27
64997;SHT31;51545;51.568;6.998;2024-01-30T03:49:14;6.21;97.05
64997;SHT31;51545;51.568;6.998;2024-01-30T03:51:40;6.18;96.65
64997;SHT31;51545;51.568;6.998;2024-01-30T03:54:06;6.14;96.69
64997;SHT31;51545;51.568;6.998;2024-01-30T03:56:33;6.13;96.75
64997;SHT31;51545;51.568;6.998;2024-01-30T03:58:59;6.24;97.13
64997;SHT31;51545;51.568;6.998;2024-01-30T04:01:28;6.20;96.75
64997;SHT31;51545;51.568;6.998;2024-01-30T04:03:54;6.07;96.74
64997;SHT31;51545;51.568;6.998;2024-01-30T04:06:19;5.96;97.11
64997;SHT31;51545;51.568;6.998;2024-01-30T04:08:45;5.98;97.40
64997;SHT31;51545;51.568;6.998;2024-01-30T04:11:11;6.03;97.17
64997;SHT31;51545;51.568;6.998;2024-01-30T04:13:37;5.81;96.68
64997;SHT31;51545;51.568;6.998;2024-01-30T04:16:03;5.79;97.30
64997;SHT31;51545;51.568;6.998;2024-01-30T04:18:29;5.92;97.40
64997;SHT31;51545;51.568;6.998;2024-01-30T04:20:56;5.86;97.26
64997;SHT31;51545;51.568;6.998;2024-01-30T04:23:22;5.95;97.62
64997;SHT31;51545;51.568;6.998;2024-01-30T04:25:48;6.00;97.61
64997;SHT31;51545;51.568;6.998;2024-01-30T04:28:14;6.00;97.58
64997;SHT31;51545;51.568;6.998;2024-01-30T04:30:40;5.96;97.26
64997;SHT31;51545;51.568;6.998;2024-01-30T04:33:06;6.11;97.72
64997;SHT31;51545;51.568;6.998;2024-01-30T04:35:31;6.16;97.47
64997;SHT31;51545;51.568;6.998;2024-01-30T04:37:57;6.00;96.98
64997;SHT31;51545;51.568;6.998;2024-01-30T04:40:23;6.00;96.91
64997;SHT31;51545;51.568;6.998;2024-01-30T04:42:50;6.13;97.33
64997;SHT31;51545;51.568;6.998;2024-01-30T04:45:17;6.20;97.37
64997;SHT31;51545;51.568;6.998;2024-01-30T04:47:42;6.26;97.45
64997;SHT31;51545;51.568;6.998;2024-01-30T04:50:08;6.33;97.26
64997;SHT31;51545;51.568;6.998;2024-01-30T04:52:35;6.44;97.12
64997;SHT31;51545;51.568;6.998;2024-01-30T04:55:02;6.55;96.81
64997;SHT31;51545;51.568;6.998;2024-01-30T04:57:28;6.52;96.72
64997;SHT31;51545;51.568;6.998;2024-01-30T04:59:55;6.52;96.86
64997;SHT31;51545;51.568;6.998;2024-01-30T05:02:21;6.59;96.59
64997;SHT31;51545;51.568;6.998;2024-01-30T05:04:47;6.65;96.45
64997;SHT31;51545;51.568;6.998;2024-01-30T05:07:13;6.62;96.41
64997;SHT31;51545;51.568;6.998;2024-01-30T05:09:38;6.62;96.52
64997;SHT31;51545;51.568;6.998;2024-01-30T05:12:04;6.64;96.44
64997;SHT31;51545;51.568;6.998;2024-01-30T05:14:30;6.71;96.54
64997;SHT31;51545;51.568;6.998;2024-01-30T05:16:56;6.59;96.10
64997;SHT31;51545;51.568;6.998;2024-01-30T05:19:22;6.54;96.53
64997;SHT31;51545;51.568;6.998;2024-01-30T05:21:49;6.64;96.63
64997;SHT31;51545;51.568;6.998;2024-01-30T05:24:16;6.76;96.56
64997;SHT31;51545;51.568;6.998;2024-01-30T05:26:42;6.73;96.22
64997;SHT31;51545;51.568;6.998;2024-01-30T05:29:08;6.80;96.29
64997;SHT31;51545;51.568;6.998;2024-01-30T05:31:34;6.65;95.79
64997;SHT31;51545;51.568;6.998;2024-01-30T05:34:00;6.65;96.30
64997;SHT31;51545;51.568;6.998;2024-01-30T05:36:26;6.67;96.30
64997;SHT31;51545;51.568;6.998;2024-01-30T05:38:52;6.73;96.29
64997;SHT31;51545;51.568;6.998;2024-01-30T05:41:19;6.71;96.23
64997;SHT31;51545;51.568;6.998;2024-01-30T05:43:46;6.61;96.09
64997;SHT31;51545;51.568;6.998;2024-01-30T05:46:12;6.59;96.43
64997;SHT31;51545;51.568;6.998;2024-01-30T05:48:38;6.72;96.41
64997;SHT31;51545;51.568;6.998;2024-01-30T05:51:04;6.58;96.04
64997;SHT31;51545;51.568;6.998;2024-01-30T05:53:30;6.42;96.56
64997;SHT31;51545;51.568;6.998;2024-01-30T05:55:56;6.52;96.87
64997;SHT31;51545;51.568;6.998;2024-01-30T05:58:22;6.62;96.66
64997;SHT31;51545;51.568;6.998;2024-01-30T06:00:48;6.71;96.51
64997;SHT31;51545;51.568;6.998;2024-01-30T06:03:14;6.65;96.36
64997;SHT31;51545;51.568;6.998;2024-01-30T06:05:39;6.72;96.22
64997;SHT31;51545;51.568;6.998;2024-01-30T06:08:05;6.75;96.29
64997;SHT31;51545;51.568;6.998;2024-01-30T06:10:31;6.78;96.38
64997;SHT31;51545;51.568;6.998;2024-01-30T06:12:57;6.85;95.98
64997;SHT31;51545;51.568;6.998;2024-01-30T06:15:23;6.95;96.08
64997;SHT31;51545;51.568;6.998;2024-01-30T06:17:49;7.00;95.83
64997;SHT31;51545;51.568;6.998;2024-01-30T06:20:15;6.92;95.52
64997;SHT31;51545;51.568;6.998;2024-01-30T06:22:41;6.96;95.80
64997;SHT31;51545;51.568;6.998;2024-01-30T06:25:07;7.03;95.77
64997;SHT31;51545;51.568;6.998;2024-01-30T06:27:33;7.11;95.82
64997;SHT31;51545;51.568;6.998;2024-01-30T06:29:59;7.16;95.57
64997;SHT31;51545;51.568;6.998;2024-01-30T06:32:25;7.21;95.52
64997;SHT31;51545;51.568;6.998;2024-01-30T06:34:51;7.34;95.24
64997;SHT31;51545;51.568;6.998;2024-01-30T06:37:17;7.51;94.95
64997;SHT31;51545;51.568;6.998;2024-01-30T06:39:43;7.59;94.75
64997;SHT31;51545;51.568;6.998;2024-01-30T06:42:09;7.65;94.50
64997;SHT31;51545;51.568;6.998;2024-01-30T06:44:37;7.69;94.54
64997;SHT31;51545;51.568;6.998;2024-01-30T06:47:03;7.66;94.33
64997;SHT31;51545;51.568;6.998;2024-01-30T06:49:29;7.69;94.36
64997;SHT31;51545;51.568;6.998;2024-01-30T06:51:55;7.79;94.21
64997;SHT31;51545;51.568;6.998;2024-01-30T06:54:21;7.82;94.01
64997;SHT31;51545;51.568;6.998;2024-01-30T06:56:47;7.79;94.03
64997;SHT31;51545;51.568;6.998;2024-01-30T06:59:12;7.92;93.97
64997;SHT31;51545;51.568;6.998;2024-01-30T07:01:38;7.87;93.95
64997;SHT31;51545;51.568;6.998;2024-01-30T07:04:04;7.82;94.02
64997;SHT31;51545;51.568;6.998;2024-01-30T07:06:30;7.82;94.03
64997;SHT31;51545;51.568;6.998;2024-01-30T07:08:56;7.97;94.02
64997;SHT31;51545;51.568;6.998;2024-01-30T07:11:22;7.99;93.88
64997;SHT31;51545;51.568;6.998;2024-01-30T07:13:52;7.97;93.85
64997;SHT31;51545;51.568;6.998;2024-01-30T07:16:18;7.96;93.91
64997;SHT31;51545;51.568;6.998;2024-01-30T07:18:44;8.01;94.02
64997;SHT31;51545;51.568;6.998;2024-01-30T07:21:12;8.07;93.92
64997;SHT31;51545;51.568;6.998;2024-01-30T07:23:38;8.07;93.66
64997;SHT31;51545;51.568;6.998;2024-01-30T07:26:08;8.16;93.62
64997;SHT31;51545;51.568;6.998;2024-01-30T07:28:34;8.10;93.54
64997;SHT31;51545;51.568;6.998;2024-01-30T07:31:00;8.11;93.59
64997;SHT31;51545;51.568;6.998;2024-01-30T07:33:27;8.11;93.75
64997;SHT31;51545;51.568;6.998;2024-01-30T07:35:53;8.13;93.59
64997;SHT31;51545;51.568;6.998;2024-01-30T07:38:19;8.16;93.78
64997;SHT31;51545;51.568;6.998;2024-01-30T07:40:45;8.18;93.69
64997;SHT31;51545;51.568;6.998;2024-01-30T07:43:11;8.37;93.48
64997;SHT31;51545;51.568;6.998;2024-01-30T07:45:37;8.42;93.24
64997;SHT31;51545;51.568;6.998;2024-01-30T07:48:05;8.39;93.15
64997;SHT31;51545;51.568;6.998;2024-01-30T07:50:31;8.37;93.28
64997;SHT31;51545;51.568;6.998;2024-01-30T07:52:59;8.41;93.24
64997;SHT31;51545;51.568;6.998;2024-01-30T07:55:25;8.53;92.96
64997;SHT31;51545;51.568;6.998;2024-01-30T07:58:31;8.49;92.88
64997;SHT31;51545;51.568;6.998;2024-01-30T08:01:19;8.56;92.90
64997;SHT31;51545;51.568;6.998;2024-01-30T08:03:49;8.52;92.89
64997;SHT31;51545;51.568;6.998;2024-01-30T08:06:15;8.52;92.94
64997;SHT31;51545;51.568;6.998;2024-01-30T08:08:41;8.56;92.99
64997;SHT31;51545;51.568;6.998;2024-01-30T08:11:07;8.62;92.93
64997;SHT31;51545;51.568;6.998;2024-01-30T08:13:33;8.57;92.89
64997;SHT31;51545;51.568;6.998;2024-01-30T08:15:59;8.67;92.96
64997;SHT31;51545;51.568;6.998;2024-01-30T08:18:25;8.74;92.76
64997;SHT31;51545;51.568;6.998;2024-01-30T08:20:50;8.70;92.77
64997;SHT31;51545;51.568;6.998;2024-01-30T08:23:16;8.74;92.84
64997;SHT31;51545;51.568;6.998;2024-01-30T08:25:42;8.83;92.69
64997;SHT31;51545;51.568;6.998;2024-01-30T08:28:08;8.86;92.58
64997;SHT31;51545;51.568;6.998;2024-01-30T08:30:34;8.94;92.64
64997;SHT31;51545;51.568;6.998;2024-01-30T08:33:00;9.08;92.08
64997;SHT31;51545;51.568;6.998;2024-01-30T08:35:27;9.32;91.57
64997;SHT31;51545;51.568;6.998;2024-01-30T08:37:59;9.43;91.03
64997;SHT31;51545;51.568;6.998;2024-01-30T08:51:37;9.63;90.22
64997;SHT31;51545;51.568;6.998;2024-01-30T08:54:53;9.67;90.20
64997;SHT31;51545;51.568;6.998;2024-01-30T08:57:20;9.77;89.78
64997;SHT31;51545;51.568;6.998;2024-01-30T08:59:46;9.79;89.76
64997;SHT31;51545;51.568;6.998;2024-01-30T09:02:13;9.90;89.56
64997;SHT31;51545;51.568;6.998;2024-01-30T09:04:43;9.90;89.50
64997;SHT31;51545;51.568;6.998;2024-01-30T09:07:15;9.95;89.27
64997;SHT31;51545;51.568;6.998;2024-01-30T09:09:42;9.93;89.23
64997;SHT31;51545;51.568;6.998;2024-01-30T09:12:08;9.89;89.39
64997;SHT31;51545;51.568;6.998;2024-01-30T09:14:39;9.98;89.14
64997;SHT31;51545;51.568;6.998;2024-01-30T09:17:08;10.00;89.19
64997;SHT31;51545;51.568;6.998;2024-01-30T09:19:34;10.01;89.08
64997;SHT31;51545;51.568;6.998;2024-01-30T09:22:02;10.03;89.04
64997;SHT31;51545;51.568;6.998;2024-01-30T09:24:33;10.05;88.82
64997;SHT31;51545;51.568;6.998;2024-01-30T09:27:00;10.08;88.82
64997;SHT31;51545;51.568;6.998;2024-01-30T09:29:31;10.11;88.76
64997;SHT31;51545;51.568;6.998;2024-01-30T09:32:01;10.17;88.77
64997;SHT31;51545;51.568;6.998;2024-01-30T09:34:28;10.17;88.63
64997;SHT31;51545;51.568;6.998;2024-01-30T09:36:54;10.17;88.56
64997;SHT31;51545;51.568;6.998;2024-01-30T09:39:20;10.25;88.71
64997;SHT31;51545;51.568;6.998;2024-01-30T09:41:51;10.31;88.67
64997;SHT31;51545;51.568;6.998;2024-01-30T09:44:20;10.39;88.33
64997;SHT31;51545;51.568;6.998;2024-01-30T09:46:48;10.50;88.11
64997;SHT31;51545;51.568;6.998;2024-01-30T09:49:15;10.53;87.91
64997;SHT31;51545;51.568;6.998;2024-01-30T09:51:44;10.65;87.48
64997;SHT31;51545;51.568;6.998;2024-01-30T09:54:11;10.76;87.29
64997;SHT31;51545;51.568;6.998;2024-01-30T09:56:40;10.80;87.13
64997;SHT31;51545;51.568;6.998;2024-01-30T09:59:06;10.88;87.09
64997;SHT31;51545;51.568;6.998;2024-01-30T10:01:34;11.03;86.69
64997;SHT31;51545;51.568;6.998;2024-01-30T10:04:00;11.16;86.12
64997;SHT31;51545;51.568;6.998;2024-01-30T10:06:26;11.29;86.15
64997;SHT31;51545;51.568;6.998;2024-01-30T10:08:53;11.48;85.82
64997;SHT31;51545;51.568;6.998;2024-01-30T10:11:19;11.62;85.05
64997;SHT31;51545;51.568;6.998;2024-01-30T10:13:45;11.74;84.81
64997;SHT31;51545;51.568;6.998;2024-01-30T10:16:13;11.77;84.67
64997;SHT31;51545;51.568;6.998;2024-01-30T10:18:41;11.71;84.65
64997;SHT31;51545;51.568;6.998;2024-01-30T10:21:07;11.78;84.63
64997;SHT31;51545;51.568;6.998;2024-01-30T10:23:34;11.86;84.33
64997;SHT31;51545;51.568;6.998;2024-01-30T10:26:00;11.88;84.12
64997;SHT31;51545;51.568;6.998;2024-01-30T10:28:27;11.86;84.28
64997;SHT31;51545;51.568;6.998;2024-01-30T10:30:59;11.94;84.09
64997;SHT31;51545;51.568;6.998;2024-01-30T10:33:26;11.99;83.86
64997;SHT31;51545;51.568;6.998;2024-01-30T10:36:03;12.01;83.70
64997;SHT31;51545;51.568;6.998;2024-01-30T10:38:53;12.04;83.65
64997;SHT31;51545;51.568;6.998;2024-01-30T10:41:27;12.04;83.50
64997;SHT31;51545;51.568;6.998;2024-01-30T10:43:59;11.95;84.14
64997;SHT31;51545;51.568;6.998;2024-01-30T10:46:31;11.88;83.94
64997;SHT31;51545;51.568;6.998;2024-01-30T10:48:59;11.86;84.05
64997;SHT31;51545;51.568;6.998;2024-01-30T10:51:27;11.88;84.02
64997;SHT31;51545;51.568;6.998;2024-01-30T10:53:53;11.87;84.21
64997;SHT31;51545;51.568;6.998;2024-01-30T10:56:21;11.91;83.75
64997;SHT31;51545;51.568;6.998;2024-01-30T10:58:51;11.97;83.81
64997;SHT31;51545;51.568;6.998;2024-01-30T11:01:23;11.97;84.07
64997;SHT31;51545;51.568;6.998;2024-01-30T11:03:54;11.91;83.90
64997;SHT31;51545;51.568;6.998;2024-01-30T11:06:22;11.98;84.14
64997;SHT31;51545;51.568;6.998;2024-01-30T11:09:04;11.97;84.26
64997;SHT31;51545;51.568;6.998;2024-01-30T11:11:49;11.99;84.15
64997;SHT31;51545;51.568;6.998;2024-01-30T11:14:22;12.04;84.22
64997;SHT31;51545;51.568;6.998;2024-01-30T11:16:50;12.02;84.55
64997;SHT31;51545;51.568;6.998;2024-01-30T11:19:22;12.09;84.25
64997;SHT31;51545;51.568;6.998;2024-01-30T11:21:50;12.05;84.29
64997;SHT31;51545;51.568;6.998;2024-01-30T11:24:20;12.04;84.52
64997;SHT31;51545;51.568;6.998;2024-01-30T11:26:54;11.94;84.94
64997;SHT31;51545;51.568;6.998;2024-01-30T11:29:25;11.98;84.77
64997;SHT31;51545;51.568;6.998;2024-01-30T11:31:55;11.94;84.97
64997;SHT31;51545;51.568;6.998;2024-01-30T11:34:22;11.93;85.10
64997;SHT31;51545;51.568;6.998;2024-01-30T11:36:52;11.90;85.24
64997;SHT31;51545;51.568;6.998;2024-01-30T11:39:25;11.95;85.36
64997;SHT31;51545;51.568;6.998;2024-01-30T11:41:52;11.87;85.64
64997;SHT31;51545;51.568;6.998;2024-01-30T11:44:19;11.90;85.29
64997;SHT31;51545;51.568;6.998;2024-01-30T11:46:47;11.87;85.51
64997;SHT31;51545;51.568;6.998;2024-01-30T11:49:14;11.87;85.63
64997;SHT31;51545;51.568;6.998;2024-01-30T11:51:41;11.97;85.40
64997;SHT31;51545;51.568;6.998;2024-01-30T11:54:07;12.01;85.43
64997;SHT31;51545;51.568;6.998;2024-01-30T11:56:33;11.97;85.80
64997;SHT31;51545;51.568;6.998;2024-01-30T11:59:00;11.87;86.00
64997;SHT31;51545;51.568;6.998;2024-01-30T12:01:26;11.83;85.76
64997;SHT31;51545;51.568;6.998;2024-01-30T12:03:52;11.83;85.97
64997;SHT31;51545;51.568;6.998;2024-01-30T12:06:18;11.87;85.82
64997;SHT31;51545;51.568;6.998;2024-01-30T12:09:00;11.77;86.16
64997;SHT31;51545;51.568;6.998;2024-01-30T12:11:30;11.81;85.89
64997;SHT31;51545;51.568;6.998;2024-01-30T12:13:56;11.84;86.15
64997;SHT31;51545;51.568;6.998;2024-01-30T12:16:22;11.83;86.25
64997;SHT31;51545;51.568;6.998;2024-01-30T12:18:48;11.83;86.22
64997;SHT31;51545;51.568;6.998;2024-01-30T12:21:17;11.78;86.63
64997;SHT31;51545;51.568;6.998;2024-01-30T12:23:44;11.78;86.55
64997;SHT31;51545;51.568;6.998;2024-01-30T12:26:10;11.81;86.55
64997;SHT31;51545;51.568;6.998;2024-01-30T12:28:36;11.81;86.54
64997;SHT31;51545;51.568;6.998;2024-01-30T12:31:12;11.86;86.52
64997;SHT31;51545;51.568;6.998;2024-01-30T12:33:39;11.84;86.70
64997;SHT31;51545;51.568;6.998;2024-01-30T12:36:06;11.80;86.72
64997;SHT31;51545;51.568;6.998;2024-01-30T12:38:39;11.86;86.88
64997;SHT31;51545;51.568;6.998;2024-01-30T12:41:21;11.80;87.17
64997;SHT31;51545;51.568;6.998;2024-01-30T12:43:47;11.84;88.48
64997;SHT31;51545;51.568;6.998;2024-01-30T12:46:16;12.02;90.10
64997;SHT31;51545;51.568;6.998;2024-01-30T12:48:42;11.99;88.90
64997;SHT31;51545;51.568;6.998;2024-01-30T12:51:08;11.94;88.71
64997;SHT31;51545;51.568;6.998;2024-01-30T12:53:34;12.02;88.93
64997;SHT31;51545;51.568;6.998;2024-01-30T12:56:00;11.99;88.37
64997;SHT31;51545;51.568;6.998;2024-01-30T12:58:26;12.08;88.86
64997;SHT31;51545;51.568;6.998;2024-01-30T13:00:52;11.97;88.14
64997;SHT31;51545;51.568;6.998;2024-01-30T13:03:19;11.93;87.91
64997;SHT31;51545;51.568;6.998;2024-01-30T13:05:45;11.90;87.71
64997;SHT31;51545;51.568;6.998;2024-01-30T13:08:11;11.81;87.77
64997;SHT31;51545;51.568;6.998;2024-01-30T13:10:37;11.76;88.09
64997;SHT31;51545;51.568;6.998;2024-01-30T13:13:03;11.77;88.15
64997;SHT31;51545;51.568;6.998;2024-01-30T13:15:29;11.74;88.17
64997;SHT31;51545;51.568;6.998;2024-01-30T13:17:55;11.70;88.36
64997;SHT31;51545;51.568;6.998;2024-01-30T13:20:21;11.66;88.55
64997;SHT31;51545;51.568;6.998;2024-01-30T13:22:47;11.65;88.65
64997;SHT31;51545;51.568;6.998;2024-01-30T13:25:15;11.67;88.69
64997;SHT31;51545;51.568;6.998;2024-01-30T13:27:41;11.69;88.83
64997;SHT31;51545;51.568;6.998;2024-01-30T13:30:08;11.71;88.72
64997;SHT31;51545;51.568;6.998;2024-01-30T13:32:35;11.70;88.85
64997;SHT31;51545;51.568;6.998;2024-01-30T13:35:01;11.70;88.82
64997;SHT31;51545;51.568;6.998;2024-01-30T13:37:37;11.80;88.72
64997;SHT31;51545;51.568;6.998;2024-01-30T13:40:04;11.76;88.83
64997;SHT31;51545;51.568;6.998;2024-01-30T13:42:32;11.84;88.51
64997;SHT31;51545;51.568;6.998;2024-01-30T13:44:58;11.81;88.67
64997;SHT31;51545;51.568;6.998;2024-01-30T13:47:24;11.81;88.86
64997;SHT31;51545;51.568;6.998;2024-01-30T13:49:51;11.78;88.94
64997;SHT31;51545;51.568;6.998;2024-01-30T13:52:18;11.73;89.09
64997;SHT31;51545;51.568;6.998;2024-01-30T13:54:44;11.69;89.33
64997;SHT31;51545;51.568;6.998;2024-01-30T13:57:10;11.66;89.28
64997;SHT31;51545;51.568;6.998;2024-01-30T13:59:37;11.58;89.44
64997;SHT31;51545;51.568;6.998;2024-01-30T14:02:03;11.56;89.60
64997;SHT31;51545;51.568;6.998;2024-01-30T14:04:30;11.60;89.43
64997;SHT31;51545;51.568;6.998;2024-01-30T14:06:56;11.62;89.52
64997;SHT31;51545;51.568;6.998;2024-01-30T14:09:22;11.63;89.63
64997;SHT31;51545;51.568;6.998;2024-01-30T14:11:48;11.58;89.72
64997;SHT31;51545;51.568;6.998;2024-01-30T14:14:14;11.65;89.20
64997;SHT31;51545;51.568;6.998;2024-01-30T14:16:39;11.70;88.99
64997;SHT31;51545;51.568;6.998;2024-01-30T14:19:06;11.83;88.60
64997;SHT31;51545;51.568;6.998;2024-01-30T14:21:32;11.91;88.34
64997;SHT31;51545;51.568;6.998;2024-01-30T14:23:57;11.88;88.26
64997;SHT31;51545;51.568;6.998;2024-01-30T14:26:23;11.98;88.11
64997;SHT31;51545;51.568;6.998;2024-01-30T14:28:52;12.04;88.09
64997;SHT31;51545;51.568;6.998;2024-01-30T14:31:17;12.05;87.83
64997;SHT31;51545;51.568;6.998;2024-01-30T14:33:45;12.06;87.56
64997;SHT31;51545;51.568;6.998;2024-01-30T14:36:11;12.06;87.63
64997;SHT31;51545;51.568;6.998;2024-01-30T14:38:37;11.98;87.87
64997;SHT31;51545;51.568;6.998;2024-01-30T14:41:03;11.97;87.75
64997;SHT31;51545;51.568;6.998;2024-01-30T14:43:31;11.94;87.56
64997;SHT31;51545;51.568;6.998;2024-01-30T14:45:57;11.90;87.58
64997;SHT31;51545;51.568;6.998;2024-01-30T14:48:23;11.95;87.41
64997;SHT31;51545;51.568;6.998;2024-01-30T14:50:49;11.84;87.90
64997;SHT31;51545;51.568;6.998;2024-01-30T14:53:15;11.83;85.71
64997;SHT31;51545;51.568;6.998;2024-01-30T14:55:41;11.63;85.34
64997;SHT31;51545;51.568;6.998;2024-01-30T14:58:07;11.53;85.15
64997;SHT31;51545;51.568;6.998;2024-01-30T15:00:33;11.45;85.02
64997;SHT31;51545;51.568;6.998;2024-01-30T15:02:59;11.45;84.66
64997;SHT31;51545;51.568;6.998;2024-01-30T15:08:40;11.42;84.03
64997;SHT31;51545;51.568;6.998;2024-01-30T15:11:48;11.34;84.24
64997;SHT31;51545;51.568;6.998;2024-01-30T15:14:14;11.34;83.92
64997;SHT31;51545;51.568;6.998;2024-01-30T15:16:40;11.34;83.87
64997;SHT31;51545;51.568;6.998;2024-01-30T15:19:34;11.35;83.75
64997;SHT31;51545;51.568;6.998;2024-01-30T15:22:43;11.32;83.59
64997;SHT31;51545;51.568;6.998;2024-01-30T15:25:11;11.23;83.84
64997;SHT31;51545;51.568;6.998;2024-01-30T15:27:38;11.28;83.76
64997;SHT31;51545;51.568;6.998;2024-01-30T15:30:05;11.29;83.63
64997;SHT31;51545;51.568;6.998;2024-01-30T15:32:32;11.32;83.57
64997;SHT31;51545;51.568;6.998;2024-01-30T15:34:59;11.35;83.16
64997;SHT31;51545;51.568;6.998;2024-01-30T15:37:29;11.28;83.35
64997;SHT31;51545;51.568;6.998;2024-01-30T15:39:55;11.14;83.09
64997;SHT31;51545;51.568;6.998;2024-01-30T15:42:21;11.03;83.10
64997;SHT31;51545;51.568;6.998;2024-01-30T15:44:47;10.97;82.84
64997;SHT31;51545;51.568;6.998;2024-01-30T15:47:13;10.90;81.88
64997;SHT31;51545;51.568;6.998;2024-01-30T15:49:39;10.84;80.97
64997;SHT31;51545;51.568;6.998;2024-01-30T15:52:05;10.73;80.67
64997;SHT31;51545;51.568;6.998;2024-01-30T15:54:31;10.63;81.08
64997;SHT31;51545;51.568;6.998;2024-01-30T15:56:59;10.57;81.43